KBGR/BGR METAR and TAF weather

Enter ICAO airport designator
Station Type Date Time Source
KBGR METAR 2019/02/23 22:53 UTC NOAA

KBGR 232253Z 00000KT 10SM FEW200 M06/M12 A3037 RMK AO2 SLP288 T10611122


Station Type Date Time Source
KBGR Decoded METAR 2019/02/23 22:53 UTC NOAA

BANGOR INT'L AIRPORT, ME, United States (KBGR) 44-48N 068-49W 57M
Feb 23, 2019 - 05:53 PM EST / 2019.02.23 2253 UTC
Wind: Calm:0
Visibility: 10 mile(s):0
Sky conditions: mostly clear
Temperature: 21.0 F (-6.1 C)
Dew Point: 10.0 F (-12.2 C)
Relative Humidity: 61%
Pressure (altimeter): 30.37 in. Hg (1028 hPa)
ob: KBGR 232253Z 00000KT 10SM FEW200 M06/M12 A3037 RMK AO2 SLP288 T10611122
cycle: 23

Station Type Date Time Source
KBGR TAF 2019/02/23 18:40 UTC NOAA

TAF KBGR 231738Z 2318/2418 30011G18KT P6SM SCT250
FM232300 VRB03KT P6SM BKN150
FM241000 12004KT P6SM OVC090
FM241200 12005KT P6SM OVC030
FM241500 13010G18KT 2SM -SN OVC020
FM241600 13012G20KT 1SM -SN OVC015


Example: see airport list